< < Back
Terminal Aerodrome Forecast


Current Version              Previous Versions:   1  2  3  4  5  6  7  8  9  

Terminal Aerodrome Forecast

217
FTUS42 KCHS 011134
TAFSAV
TAF
KSAV 011134Z 0112/0212 25010KT P6SM FEW200
     FM011600 27012G19KT P6SM FEW035 SCT060
     FM012300 24007KT P6SM FEW060 SCT250=



Latest METAR

693
SAUS80 KWBC 020300 RRA
MTRSAV
METAR KSAV 020253Z AUTO 23005KT 10SM SCT050CB BKN250 27/21 A3005 RMK AO2
SLP175 FRQ LTGIC NW CB NW T02720211 53017 TSNO


USA.gov is the U.S. government's official web portal to all federal, state and local government web resources and services.